Time;durP1;ratioP1;P1;durP2;ratioP2;P2;SDS_P1;SDS_P2;PMS_P1;PMS_P2;Temp;Humidity;BMP_temperature;BMP_pressure;BME280_temperature;BME280_humidity;BME280_pressure;Samples;Min_cycle;Max_cycle;Signal;HPM_P1;HPM_P2
2021/01/01 00:01:22;;;;;;;31.00;21.30;;;2.90;99.90;;;;;;6946700;28;20496;-71
2021/01/01 00:04:43;;;;;;;29.17;20.63;;;2.90;99.90;;;;;;6945991;28;20393;-72
2021/01/01 00:08:05;;;;;;;30.85;20.10;;;2.80;99.90;;;;;;6956929;28;20900;-72
2021/01/01 00:11:26;;;;;;;29.73;19.63;;;2.90;99.90;;;;;;6941962;28;20401;-71
2021/01/01 00:14:47;;;;;;;34.15;22.27;;;2.80;99.90;;;;;;6949508;28;20443;-72
2021/01/01 00:18:08;;;;;;;33.20;23.13;;;2.70;99.90;;;;;;6960574;28;20427;-72
2021/01/01 00:21:29;;;;;;;40.57;27.03;;;2.80;99.90;;;;;;6945789;28;20868;-71
2021/01/01 00:24:50;;;;;;;41.53;26.98;;;2.70;99.90;;;;;;6974436;28;20784;-69
2021/01/01 00:28:11;;;;;;;41.90;26.80;;;2.80;99.90;;;;;;6947190;28;20424;-70
2021/01/01 00:31:32;;;;;;;43.17;29.00;;;2.80;99.90;;;;;;6943883;28;20506;-70
2021/01/01 00:34:53;;;;;;;43.40;28.47;;;2.80;99.90;;;;;;6972066;28;20405;-70
2021/01/01 00:38:14;;;;;;;41.00;27.00;;;2.80;99.90;;;;;;6943612;28;20411;-70
2021/01/01 00:41:35;;;;;;;39.60;26.20;;;2.90;99.90;;;;;;6951000;28;20401;-71
2021/01/01 00:44:56;;;;;;;38.92;26.23;;;3.00;99.90;;;;;;6942307;28;20396;-70
2021/01/01 00:48:16;;;;;;;40.65;26.90;;;3.00;99.90;;;;;;6936556;28;20416;-72
2021/01/01 00:51:37;;;;;;;39.10;24.63;;;3.10;99.90;;;;;;6987873;28;20399;-72
2021/01/01 00:54:58;;;;;;;37.00;24.03;;;3.00;99.90;;;;;;6942383;28;20412;-69
2021/01/01 00:58:19;;;;;;;36.03;24.30;;;3.00;99.90;;;;;;6963846;28;20469;-72
2021/01/01 01:01:40;;;;;;;35.35;23.08;;;3.00;99.90;;;;;;6966268;28;20409;-71
2021/01/01 01:05:01;;;;;;;36.55;24.38;;;3.00;99.90;;;;;;6940368;28;20885;-71
2021/01/01 01:08:22;;;;;;;34.33;23.48;;;3.00;99.90;;;;;;6941565;28;20919;-70
2021/01/01 01:11:42;;;;;;;32.43;21.80;;;3.00;99.90;;;;;;6932215;28;20766;-69
2021/01/01 01:15:04;;;;;;;34.70;23.10;;;3.00;99.90;;;;;;6928575;28;20465;-70
2021/01/01 01:18:25;;;;;;;32.25;21.63;;;3.00;99.90;;;;;;6961481;28;20399;-71
2021/01/01 01:21:46;;;;;;;32.60;22.37;;;3.00;99.90;;;;;;6930274;28;20957;-71
2021/01/01 01:25:07;;;;;;;32.50;21.90;;;2.80;99.90;;;;;;6963716;28;20452;-70
2021/01/01 01:28:28;;;;;;;33.67;22.20;;;2.80;99.90;;;;;;6977846;28;20749;-71
2021/01/01 01:31:49;;;;;;;31.63;21.63;;;2.70;99.90;;;;;;6952883;28;20856;-70
2021/01/01 01:35:10;;;;;;;33.47;21.50;;;2.70;99.90;;;;;;6971399;28;20402;-71
2021/01/01 01:38:31;;;;;;;30.73;20.83;;;2.50;99.90;;;;;;6973763;28;20387;-71
2021/01/01 01:41:53;;;;;;;32.45;21.63;;;2.30;99.90;;;;;;6945565;28;20490;-71
2021/01/01 01:45:14;;;;;;;33.10;21.47;;;2.30;99.90;;;;;;6961652;28;20408;-71
2021/01/01 01:48:37;;;;;;;32.05;20.92;;;2.30;99.90;;;;;;6973544;28;20962;-70
2021/01/01 01:51:58;;;;;;;32.58;21.45;;;2.30;99.90;;;;;;6952896;28;20449;-71
2021/01/01 01:55:20;;;;;;;29.57;20.23;;;2.30;99.90;;;;;;6954643;28;20478;-71
2021/01/01 01:58:41;;;;;;;27.10;19.03;;;2.40;99.90;;;;;;6970537;28;20459;-72
2021/01/01 02:02:02;;;;;;;29.33;19.92;;;2.40;99.90;;;;;;6935498;28;20411;-71
2021/01/01 02:05:23;;;;;;;26.42;18.55;;;2.50;99.90;;;;;;6934182;28;20893;-71
2021/01/01 02:08:44;;;;;;;28.35;18.50;;;2.60;99.90;;;;;;6951968;28;20821;-70
2021/01/01 02:12:06;;;;;;;27.97;18.60;;;2.70;99.90;;;;;;6957448;28;20405;-70
2021/01/01 02:15:29;;;;;;;25.70;18.45;;;2.70;99.90;;;;;;6943013;28;20505;-71
2021/01/01 02:18:50;;;;;;;26.40;18.35;;;2.70;99.90;;;;;;6949218;28;20413;-70
2021/01/01 02:22:11;;;;;;;27.65;18.48;;;2.80;99.90;;;;;;6953781;28;20930;-70
2021/01/01 02:25:32;;;;;;;29.83;18.50;;;2.80;99.90;;;;;;6966081;28;20460;-70
2021/01/01 02:28:53;;;;;;;27.65;18.63;;;2.80;99.90;;;;;;6956199;28;20932;-70
2021/01/01 02:32:14;;;;;;;28.25;18.60;;;2.80;99.90;;;;;;6952832;28;20818;-71
2021/01/01 02:35:35;;;;;;;27.00;18.00;;;2.80;99.90;;;;;;6951078;28;20397;-70
2021/01/01 02:38:55;;;;;;;28.80;18.70;;;2.80;99.90;;;;;;6945808;28;20403;-70
2021/01/01 02:42:17;;;;;;;29.05;18.92;;;3.00;99.90;;;;;;6957579;28;20439;-70
2021/01/01 02:45:37;;;;;;;25.90;17.35;;;3.00;99.90;;;;;;6948558;28;20422;-70
2021/01/01 02:48:58;;;;;;;25.77;17.15;;;2.90;99.90;;;;;;6932903;28;20498;-70
2021/01/01 02:52:19;;;;;;;26.17;17.70;;;3.00;99.90;;;;;;6949363;28;20389;-70
2021/01/01 02:55:40;;;;;;;28.35;18.83;;;2.90;99.90;;;;;;6979195;28;20959;-70
2021/01/01 02:59:01;;;;;;;30.70;20.63;;;2.90;99.90;;;;;;6966351;28;20468;-70
2021/01/01 03:02:22;;;;;;;31.55;20.90;;;2.90;99.90;;;;;;6955381;28;20407;-71
2021/01/01 03:05:43;;;;;;;30.80;20.70;;;2.90;99.90;;;;;;6973719;28;20405;-70
2021/01/01 03:09:05;;;;;;;34.90;20.92;;;2.70;99.90;;;;;;6948608;28;20425;-70
2021/01/01 03:12:26;;;;;;;31.05;20.73;;;2.70;99.90;;;;;;6931739;28;20901;-71
2021/01/01 03:15:47;;;;;;;32.92;21.00;;;2.70;99.90;;;;;;6945539;28;20465;-70
2021/01/01 03:19:07;;;;;;;30.42;21.17;;;2.80;99.90;;;;;;6948126;28;20391;-71
2021/01/01 03:22:28;;;;;;;29.27;19.63;;;2.80;99.90;;;;;;6963109;28;20418;-71
2021/01/01 03:25:49;;;;;;;30.80;20.23;;;2.90;99.90;;;;;;6928626;28;20414;-71
2021/01/01 03:29:10;;;;;;;27.83;19.83;;;2.90;99.90;;;;;;6940825;28;20432;-71
2021/01/01 03:32:31;;;;;;;29.63;19.40;;;2.90;99.90;;;;;;6992998;28;20935;-71
2021/01/01 03:35:52;;;;;;;29.30;19.90;;;2.80;99.90;;;;;;6956194;28;20406;-71
2021/01/01 03:39:13;;;;;;;30.20;19.95;;;2.80;99.90;;;;;;6966928;28;20411;-70
2021/01/01 03:42:33;;;;;;;32.28;20.45;;;2.80;99.90;;;;;;6950769;28;20404;-71
2021/01/01 03:45:54;;;;;;;29.83;19.60;;;2.80;99.90;;;;;;6950033;28;20897;-71
2021/01/01 03:49:15;;;;;;;29.50;20.67;;;2.80;99.90;;;;;;6938903;28;20417;-71
2021/01/01 03:52:36;;;;;;;28.70;18.77;;;2.70;99.90;;;;;;6951942;28;20391;-71
2021/01/01 03:55:57;;;;;;;29.30;19.93;;;2.80;99.90;;;;;;6958674;28;20824;-71
2021/01/01 03:59:18;;;;;;;28.10;19.17;;;2.90;99.90;;;;;;6974629;28;20947;-71
2021/01/01 04:02:39;;;;;;;27.75;18.33;;;2.90;99.90;;;;;;6966297;28;20403;-70
2021/01/01 04:06:00;;;;;;;30.38;19.02;;;2.80;99.90;;;;;;6957201;28;20402;-71
2021/01/01 04:09:21;;;;;;;28.85;18.48;;;2.90;99.90;;;;;;6979176;28;20974;-72
2021/01/01 04:12:41;;;;;;;25.70;16.98;;;2.90;99.90;;;;;;6952475;28;20419;-71
2021/01/01 04:16:03;;;;;;;26.77;17.27;;;2.80;99.90;;;;;;6953915;28;20461;-72
2021/01/01 04:19:23;;;;;;;27.50;16.92;;;2.90;99.90;;;;;;6942665;28;20399;-72
2021/01/01 04:22:45;;;;;;;25.00;15.90;;;2.90;99.90;;;;;;6966580;28;20411;-72
2021/01/01 04:26:10;;;;;;;27.13;17.20;;;2.90;99.90;;;;;;6919468;28;20405;-71
2021/01/01 04:29:31;;;;;;;24.92;16.70;;;3.00;99.90;;;;;;6937914;28;20411;-72
2021/01/01 04:32:52;;;;;;;26.23;16.40;;;2.90;99.90;;;;;;6961965;28;20410;-71
2021/01/01 04:36:13;;;;;;;25.85;16.40;;;2.90;99.90;;;;;;6969461;28;20418;-72
2021/01/01 04:39:34;;;;;;;26.38;16.55;;;3.00;99.90;;;;;;6980038;28;20404;-72
2021/01/01 04:42:55;;;;;;;25.67;16.38;;;3.00;99.90;;;;;;6953662;28;20405;-72
2021/01/01 04:46:16;;;;;;;25.05;15.95;;;2.90;99.90;;;;;;6953553;28;20416;-72
2021/01/01 04:49:39;;;;;;;24.23;15.43;;;2.90;99.90;;;;;;6962435;28;20930;-71
2021/01/01 04:53:01;;;;;;;25.75;17.00;;;3.00;99.90;;;;;;6940620;28;20401;-71
2021/01/01 04:56:22;;;;;;;25.55;15.80;;;3.00;99.90;;;;;;6944810;28;20761;-70
2021/01/01 04:59:43;;;;;;;23.65;15.63;;;3.10;99.90;;;;;;6940227;28;20695;-71
2021/01/01 05:03:04;;;;;;;23.02;15.30;;;3.00;99.90;;;;;;6967178;28;20404;-70
2021/01/01 05:06:29;;;;;;;23.88;15.30;;;3.00;99.90;;;;;;6943139;28;20422;-70
2021/01/01 05:09:50;;;;;;;25.17;15.80;;;2.90;99.90;;;;;;6944967;28;20414;-71
2021/01/01 05:13:21;;;;;;;23.27;15.32;;;3.00;99.90;;;;;;6969585;28;20395;-72
2021/01/01 05:16:51;;;;;;;26.50;15.93;;;3.10;99.90;;;;;;6943925;28;20418;-72
2021/01/01 05:20:12;;;;;;;27.00;16.20;;;3.20;99.90;;;;;;6967772;28;20813;-70
2021/01/01 05:23:39;;;;;;;24.73;16.20;;;3.10;99.90;;;;;;6972805;28;20489;-72
2021/01/01 05:27:13;;;;;;;24.45;15.95;;;3.10;99.90;;;;;;6972932;28;20405;-70
2021/01/01 05:30:35;;;;;;;25.20;15.73;;;3.10;99.90;;;;;;6970330;28;20478;-70
2021/01/01 05:34:00;;;;;;;26.63;16.00;;;3.20;99.90;;;;;;6943282;28;20397;-70
2021/01/01 05:37:39;;;;;;;23.90;14.82;;;3.10;99.90;;;;;;6956745;28;20401;-71
2021/01/01 05:41:00;;;;;;;24.20;15.85;;;3.10;99.90;;;;;;6949627;28;20413;-71
2021/01/01 05:44:25;;;;;;;23.65;15.27;;;3.10;99.90;;;;;;6973823;28;20448;-70
2021/01/01 05:48:03;;;;;;;24.58;15.77;;;3.10;99.90;;;;;;6942356;28;20430;-71
2021/01/01 05:51:24;;;;;;;26.00;16.10;;;3.10;99.90;;;;;;6968134;28;20876;-70
2021/01/01 05:54:47;;;;;;;23.93;15.00;;;3.10;99.90;;;;;;6978076;28;20490;-71
2021/01/01 05:58:22;;;;;;;23.80;14.80;;;3.10;99.90;;;;;;6962860;28;20503;-70
2021/01/01 06:01:43;;;;;;;26.60;16.30;;;3.10;99.90;;;;;;6955147;28;20951;-70
2021/01/01 06:05:11;;;;;;;24.17;15.10;;;3.20;99.90;;;;;;6960996;28;20403;-70
2021/01/01 06:08:33;;;;;;;24.50;15.75;;;3.30;99.90;;;;;;6945545;28;20779;-70
2021/01/01 06:12:04;;;;;;;24.95;16.15;;;3.20;99.90;;;;;;6936703;28;20419;-70
2021/01/01 06:15:36;;;;;;;24.60;15.43;;;3.10;99.90;;;;;;6944600;28;20429;-70
2021/01/01 06:19:00;;;;;;;26.77;15.73;;;3.10;99.90;;;;;;6966775;28;20398;-70
2021/01/01 06:22:26;;;;;;;29.98;16.90;;;3.20;99.90;;;;;;6949103;28;20423;-70
2021/01/01 06:25:47;;;;;;;26.92;17.30;;;3.30;99.90;;;;;;6976773;28;21050;-69
2021/01/01 06:29:08;;;;;;;26.20;15.60;;;3.20;99.90;;;;;;6959109;28;20420;-69
2021/01/01 06:32:32;;;;;;;27.33;16.67;;;3.30;99.90;;;;;;6941375;28;20408;-70
2021/01/01 06:35:54;;;;;;;31.20;17.50;;;3.40;99.90;;;;;;6941587;28;20408;-70
2021/01/01 06:39:41;;;;;;;29.25;17.50;;;3.40;99.90;;;;;;6948764;28;20462;-70
2021/01/01 06:43:07;;;;;;;31.50;18.42;;;3.50;99.90;;;;;;6944269;28;20414;-71
2021/01/01 06:46:39;;;;;;;32.70;18.83;;;3.50;99.90;;;;;;6966054;28;20403;-70
2021/01/01 06:49:59;;;;;;;31.65;18.83;;;3.50;99.90;;;;;;6945552;28;20984;-70
2021/01/01 06:53:28;;;;;;;28.40;17.15;;;3.50;99.90;;;;;;6952937;28;20416;-70
2021/01/01 06:56:49;;;;;;;31.05;18.15;;;3.50;99.90;;;;;;6950898;28;20403;-70
2021/01/01 07:00:10;;;;;;;31.63;18.70;;;3.50;99.90;;;;;;6963811;28;20457;-70
2021/01/01 07:03:39;;;;;;;32.30;19.20;;;3.60;99.90;;;;;;6941406;28;20409;-71
2021/01/01 07:06:59;;;;;;;32.08;18.85;;;3.60;99.90;;;;;;6960299;28;20783;-70
2021/01/01 07:10:34;;;;;;;37.17;18.90;;;3.50;99.90;;;;;;6935414;28;20399;-70
2021/01/01 07:14:01;;;;;;;33.90;18.60;;;3.60;99.90;;;;;;6971349;28;20439;-71
2021/01/01 07:17:22;;;;;;;33.00;19.17;;;3.60;99.90;;;;;;6941865;28;20396;-71
2021/01/01 07:20:44;;;;;;;32.28;18.55;;;3.50;99.90;;;;;;6937469;28;20783;-72
2021/01/01 07:24:05;;;;;;;29.73;18.80;;;3.50;99.90;;;;;;6950877;28;20392;-72
2021/01/01 07:27:26;;;;;;;31.70;18.50;;;3.50;99.90;;;;;;6938207;28;20415;-71
2021/01/01 07:30:47;;;;;;;34.88;19.30;;;3.60;99.90;;;;;;6932404;28;20460;-72
2021/01/01 07:34:09;;;;;;;31.25;17.80;;;3.50;99.90;;;;;;6967227;28;20968;-72
2021/01/01 07:37:30;;;;;;;31.15;17.20;;;3.50;99.90;;;;;;6935662;28;20458;-71
2021/01/01 07:40:52;;;;;;;30.42;17.42;;;3.40;99.90;;;;;;6931329;28;20397;-69
2021/01/01 07:44:18;;;;;;;28.45;17.17;;;3.50;99.90;;;;;;6939434;28;20514;-71
2021/01/01 07:47:42;;;;;;;30.63;17.45;;;3.50;99.90;;;;;;6969117;28;20421;-72
2021/01/01 07:51:05;;;;;;;27.75;15.90;;;3.50;99.90;;;;;;6949157;28;20928;-72
2021/01/01 07:54:26;;;;;;;29.17;16.80;;;3.50;99.90;;;;;;6944259;28;20412;-70
2021/01/01 07:57:48;;;;;;;26.10;15.60;;;3.60;99.90;;;;;;6930070;28;20396;-73
2021/01/01 08:01:11;;;;;;;28.60;16.23;;;3.50;99.90;;;;;;6951341;28;20405;-72
2021/01/01 08:04:32;;;;;;;27.10;16.00;;;3.50;99.90;;;;;;6931250;28;20750;-71
2021/01/01 08:07:53;;;;;;;28.10;16.92;;;3.50;99.90;;;;;;6945534;28;20421;-71
2021/01/01 08:11:14;;;;;;;30.20;17.20;;;3.40;99.90;;;;;;6953398;28;20903;-73
2021/01/01 08:14:35;;;;;;;28.35;16.55;;;3.30;99.90;;;;;;6946949;28;20401;-72
2021/01/01 08:18:06;;;;;;;32.08;17.10;;;3.40;99.90;;;;;;6934793;28;20737;-72
2021/01/01 08:21:27;;;;;;;29.17;17.42;;;3.30;99.90;;;;;;6949944;28;20408;-72
2021/01/01 08:24:52;;;;;;;26.98;16.50;;;3.40;99.90;;;;;;6965228;28;20418;-72
2021/01/01 08:28:34;;;;;;;29.98;16.48;;;3.40;99.90;;;;;;6935661;28;20486;-72
2021/01/01 08:31:58;;;;;;;29.77;17.02;;;3.40;99.90;;;;;;6950777;28;20919;-71
2021/01/01 08:35:19;;;;;;;25.83;16.00;;;3.50;99.90;;;;;;6947914;28;20418;-71
2021/01/01 08:38:45;;;;;;;29.23;16.45;;;3.50;99.90;;;;;;6946419;28;20401;-71
2021/01/01 08:42:08;;;;;;;27.60;16.33;;;3.60;99.90;;;;;;6939610;28;20936;-72
2021/01/01 08:45:32;;;;;;;26.83;16.10;;;3.60;99.90;;;;;;6935021;28;20490;-70
2021/01/01 08:48:54;;;;;;;29.63;16.30;;;3.60;99.90;;;;;;6972898;28;20506;-74
2021/01/01 08:52:15;;;;;;;31.53;17.47;;;3.60;99.90;;;;;;6959231;28;20472;-75
2021/01/01 08:55:36;;;;;;;32.00;17.60;;;3.60;99.90;;;;;;6955265;28;20416;-76
2021/01/01 08:59:09;;;;;;;28.98;17.38;;;3.60;99.90;;;;;;6945071;28;20901;-75
2021/01/01 09:02:32;;;;;;;31.65;17.48;;;3.70;99.90;;;;;;6966777;28;20415;-75
2021/01/01 09:05:55;;;;;;;30.85;17.02;;;3.90;99.90;;;;;;6967529;28;20926;-75
2021/01/01 09:09:24;;;;;;;30.48;16.52;;;3.90;99.90;;;;;;6947611;28;20468;-75
2021/01/01 09:12:45;;;;;;;28.40;16.40;;;4.00;99.90;;;;;;6949676;28;20389;-75
2021/01/01 09:16:11;;;;;;;25.70;16.00;;;4.00;99.90;;;;;;6954177;28;20458;-76
2021/01/01 09:19:32;;;;;;;27.02;15.43;;;4.20;99.90;;;;;;6931991;28;20882;-75
2021/01/01 09:22:58;;;;;;;32.50;16.02;;;4.20;99.90;;;;;;6961335;28;20421;-75
2021/01/01 09:26:27;;;;;;;27.17;15.90;;;4.20;99.90;;;;;;6941979;28;20922;-75
2021/01/01 09:29:48;;;;;;;26.25;16.00;;;4.30;99.90;;;;;;6962659;28;20766;-75
2021/01/01 09:33:09;;;;;;;28.88;17.83;;;4.20;99.90;;;;;;6954261;28;20413;-70
2021/01/01 09:36:38;;;;;;;29.13;16.98;;;4.30;99.90;;;;;;6948780;28;20412;-72
2021/01/01 09:39:59;;;;;;;30.38;18.50;;;4.30;99.90;;;;;;6958277;28;20405;-69
2021/01/01 09:43:20;;;;;;;30.15;18.40;;;4.00;99.90;;;;;;6967564;28;20412;-69
2021/01/01 09:46:42;;;;;;;30.50;18.67;;;4.00;99.90;;;;;;6929052;28;20476;-71
2021/01/01 09:50:05;;;;;;;30.52;17.95;;;4.00;99.90;;;;;;6933912;28;20976;-71
2021/01/01 09:53:27;;;;;;;31.85;18.10;;;3.90;99.90;;;;;;6968776;28;20748;-70
2021/01/01 09:56:48;;;;;;;30.20;18.00;;;4.00;99.90;;;;;;6935125;28;20481;-69
2021/01/01 10:00:11;;;;;;;31.70;19.10;;;4.00;99.90;;;;;;6961336;28;20490;-70
2021/01/01 10:03:34;;;;;;;30.50;18.40;;;4.00;99.90;;;;;;6949541;28;20420;-69
2021/01/01 10:06:56;;;;;;;32.13;19.10;;;4.00;99.90;;;;;;6937129;28;20408;-70
2021/01/01 10:10:17;;;;;;;31.70;18.98;;;3.90;99.90;;;;;;6941480;28;20443;-70
2021/01/01 10:13:38;;;;;;;31.45;18.20;;;4.00;99.90;;;;;;6950832;28;20393;-70
2021/01/01 10:16:59;;;;;;;28.33;17.63;;;4.00;99.90;;;;;;6934396;28;20497;-70
2021/01/01 10:20:20;;;;;;;33.10;18.85;;;4.00;99.90;;;;;;6953567;28;20394;-70
2021/01/01 10:23:41;;;;;;;30.83;18.83;;;4.00;99.90;;;;;;6949570;28;20759;-69
2021/01/01 10:27:02;;;;;;;30.88;18.65;;;4.00;99.90;;;;;;6943736;28;20405;-70
2021/01/01 10:30:23;;;;;;;31.93;18.63;;;3.90;99.90;;;;;;6957347;28;20411;-70
2021/01/01 10:33:43;;;;;;;31.97;18.17;;;4.00;99.90;;;;;;6955346;28;20412;-70
2021/01/01 10:37:05;;;;;;;31.67;18.90;;;4.00;99.90;;;;;;6965577;28;20806;-69
2021/01/01 10:40:25;;;;;;;30.30;18.07;;;4.00;99.90;;;;;;6953053;28;20450;-70
2021/01/01 10:43:46;;;;;;;32.13;18.90;;;4.10;99.90;;;;;;6944797;28;20412;-69
2021/01/01 10:47:07;;;;;;;34.85;18.50;;;4.00;99.90;;;;;;6949595;28;20404;-68
2021/01/01 10:50:28;;;;;;;29.80;19.38;;;4.10;99.90;;;;;;6932123;28;20398;-70
2021/01/01 10:53:51;;;;;;;33.10;18.88;;;4.20;99.90;;;;;;6946195;28;20457;-70
2021/01/01 10:57:12;;;;;;;33.72;18.90;;;4.20;99.90;;;;;;6934474;28;20492;-70
2021/01/01 11:00:33;;;;;;;35.30;19.83;;;4.20;99.90;;;;;;6956968;28;20872;-70
2021/01/01 11:03:54;;;;;;;33.77;19.70;;;4.20;99.90;;;;;;6946472;28;20404;-70
2021/01/01 11:07:15;;;;;;;31.92;18.88;;;4.30;99.90;;;;;;6953924;28;20475;-70
2021/01/01 11:10:36;;;;;;;34.72;20.05;;;4.40;99.90;;;;;;6969101;28;20465;-70
2021/01/01 12:21:19;;;;;;;30.75;18.63;;;4.90;99.90;;;;;;6956255;28;22035;-70
2021/01/01 12:24:46;;;;;;;31.45;18.27;;;4.70;99.90;;;;;;6965709;28;20812;-71
2021/01/01 12:28:08;;;;;;;29.33;18.30;;;4.80;99.90;;;;;;6964239;28;20419;-70
2021/01/01 12:31:30;;;;;;;30.85;18.00;;;4.90;99.90;;;;;;6934917;28;20440;-70
2021/01/01 12:34:52;;;;;;;28.35;17.58;;;4.90;99.90;;;;;;6929428;28;20482;-70
2021/01/01 12:38:13;;;;;;;30.77;17.27;;;4.90;99.90;;;;;;6928910;28;20405;-70
2021/01/01 12:41:34;;;;;;;29.10;17.07;;;5.10;99.90;;;;;;6947791;28;20414;-71
2021/01/01 12:44:54;;;;;;;26.80;16.70;;;5.10;99.90;;;;;;6960536;28;20418;-71
2021/01/01 12:48:15;;;;;;;26.95;16.50;;;5.00;99.90;;;;;;6948622;28;20409;-71
2021/01/01 12:51:37;;;;;;;26.98;16.92;;;5.00;99.90;;;;;;6957019;28;20873;-71
2021/01/01 12:54:58;;;;;;;30.67;17.08;;;5.00;99.90;;;;;;6942932;28;20721;-70
2021/01/01 12:58:19;;;;;;;27.53;16.87;;;5.00;99.90;;;;;;6958721;28;20411;-69
2021/01/01 13:01:39;;;;;;;26.77;16.67;;;4.90;99.90;;;;;;6955687;28;20413;-69
2021/01/01 13:05:00;;;;;;;24.92;15.80;;;4.80;99.90;;;;;;6930060;28;20401;-69
2021/01/01 13:08:21;;;;;;;24.98;15.20;;;4.80;99.90;;;;;;6942859;28;20427;-69
2021/01/01 13:11:46;;;;;;;24.03;14.87;;;4.80;99.90;;;;;;6957234;28;20455;-69
2021/01/01 13:15:07;;;;;;;22.00;14.17;;;4.70;99.90;;;;;;6939089;28;20467;-69
2021/01/01 13:18:28;;;;;;;22.05;14.20;;;4.50;99.90;;;;;;6945863;28;20749;-69
2021/01/01 13:21:49;;;;;;;19.63;13.30;;;4.60;99.90;;;;;;6926534;28;20435;-69
2021/01/01 13:25:11;;;;;;;19.67;12.73;;;4.60;99.90;;;;;;6949602;28;20917;-69
2021/01/01 13:28:32;;;;;;;18.60;12.38;;;4.80;99.90;;;;;;6961123;28;20543;-69
2021/01/01 13:31:53;;;;;;;17.87;12.30;;;4.80;99.90;;;;;;6948385;28;20396;-69
2021/01/01 13:35:14;;;;;;;17.70;11.75;;;4.80;99.90;;;;;;6960894;28;20478;-69
2021/01/01 13:38:35;;;;;;;19.63;11.50;;;4.90;99.90;;;;;;6949851;28;20421;-69
2021/01/01 13:41:55;;;;;;;17.02;11.60;;;4.90;99.90;;;;;;6959926;28;20397;-69
2021/01/01 13:45:17;;;;;;;16.10;10.98;;;4.80;99.90;;;;;;6936533;28;20937;-69
2021/01/01 13:48:38;;;;;;;16.20;10.65;;;4.70;99.90;;;;;;6933342;28;20423;-69
2021/01/01 13:52:01;;;;;;;18.55;10.57;;;4.70;99.90;;;;;;6966752;28;20394;-69
2021/01/01 13:55:22;;;;;;;16.92;10.98;;;4.80;99.90;;;;;;6945921;28;20412;-69
2021/01/01 13:58:43;;;;;;;15.90;11.10;;;4.80;99.90;;;;;;6945106;28;20503;-69
2021/01/01 14:02:04;;;;;;;16.90;10.73;;;4.80;99.90;;;;;;6944144;28;20444;-68
2021/01/01 14:05:25;;;;;;;16.27;10.60;;;4.80;99.90;;;;;;6937875;28;20418;-68
2021/01/01 14:08:45;;;;;;;16.93;10.50;;;4.90;99.90;;;;;;6960888;28;20458;-70
2021/01/01 14:12:06;;;;;;;20.13;13.27;;;4.70;99.90;;;;;;6965170;28;20399;-70
2021/01/01 14:15:27;;;;;;;17.95;11.57;;;4.70;99.90;;;;;;6952562;28;20430;-69
2021/01/01 14:18:48;;;;;;;67.45;43.03;;;4.80;99.90;;;;;;6947753;28;20890;-71
2021/01/01 14:22:09;;;;;;;17.60;11.48;;;4.70;99.90;;;;;;6947583;28;20451;-70
2021/01/01 14:25:30;;;;;;;16.98;11.57;;;4.70;99.90;;;;;;6939146;28;20808;-71
2021/01/01 14:28:51;;;;;;;17.17;11.10;;;4.60;99.90;;;;;;6928720;28;20479;-71
2021/01/01 14:32:11;;;;;;;17.17;11.07;;;4.60;99.90;;;;;;6961677;28;20439;-70
2021/01/01 14:35:33;;;;;;;17.52;11.55;;;4.70;99.90;;;;;;6944454;28;20425;-70
2021/01/01 14:38:55;;;;;;;18.38;11.93;;;4.80;99.90;;;;;;6948579;28;20435;-69
2021/01/01 14:42:16;;;;;;;16.57;11.27;;;4.70;99.90;;;;;;6948003;28;20435;-70
2021/01/01 14:45:38;;;;;;;16.90;11.00;;;4.60;99.90;;;;;;6962176;28;20417;-70
2021/01/01 14:48:59;;;;;;;17.80;12.18;;;4.40;99.90;;;;;;6929956;28;20420;-70
2021/01/01 14:52:20;;;;;;;19.33;11.10;;;4.30;99.90;;;;;;6941680;28;21315;-70
2021/01/01 14:55:41;;;;;;;18.63;11.73;;;4.40;99.90;;;;;;6949579;28;20417;-69
2021/01/01 14:59:03;;;;;;;20.23;14.13;;;4.50;99.90;;;;;;6927314;28;20409;-69
2021/01/01 15:02:28;;;;;;;21.10;13.40;;;4.30;99.90;;;;;;6944497;28;20389;-70
2021/01/01 15:05:49;;;;;;;20.77;13.35;;;4.30;99.90;;;;;;6946375;28;20407;-69
2021/01/01 15:09:10;;;;;;;20.83;13.00;;;4.00;99.90;;;;;;6965257;28;20478;-69
2021/01/01 15:12:31;;;;;;;22.80;14.40;;;4.10;99.90;;;;;;6932236;28;20468;-69
2021/01/01 15:15:52;;;;;;;22.90;14.13;;;4.20;99.90;;;;;;6935926;28;20489;-73
2021/01/01 15:19:14;;;;;;;26.67;18.95;;;4.00;99.90;;;;;;6945099;28;20421;-69
2021/01/01 15:22:35;;;;;;;24.95;14.73;;;4.10;99.90;;;;;;6961303;28;20433;-70
2021/01/01 15:25:56;;;;;;;23.88;14.73;;;4.10;99.90;;;;;;6946472;28;20756;-70
2021/01/01 15:29:17;;;;;;;23.75;15.35;;;4.00;99.90;;;;;;6934833;28;20497;-71
2021/01/01 15:32:38;;;;;;;25.85;15.65;;;4.00;99.90;;;;;;6932757;28;20900;-71
2021/01/01 15:35:59;;;;;;;25.93;16.10;;;4.10;99.90;;;;;;6955038;28;20405;-69
2021/01/01 15:39:20;;;;;;;25.73;15.53;;;4.00;99.90;;;;;;6948927;28;20820;-69
2021/01/01 15:42:41;;;;;;;27.07;16.50;;;4.10;99.90;;;;;;6960932;28;20396;-70
2021/01/01 15:46:02;;;;;;;27.10;16.20;;;4.10;99.90;;;;;;6959418;28;20903;-71
2021/01/01 15:49:23;;;;;;;27.37;16.70;;;4.00;99.90;;;;;;6953263;28;20430;-70
2021/01/01 15:52:44;;;;;;;29.60;16.87;;;4.00;99.90;;;;;;6966762;28;20403;-70
2021/01/01 15:56:06;;;;;;;24.00;16.20;;;4.10;99.90;;;;;;6930436;28;20467;-70
2021/01/01 15:59:26;;;;;;;26.38;16.10;;;4.00;99.90;;;;;;6946231;28;20761;-70
2021/01/01 16:02:47;;;;;;;27.87;17.23;;;4.10;99.90;;;;;;6949332;28;20419;-70
2021/01/01 16:06:08;;;;;;;27.33;16.00;;;4.10;99.90;;;;;;6930470;28;20406;-68
2021/01/01 16:09:29;;;;;;;25.88;16.25;;;4.00;99.90;;;;;;6939337;28;20434;-68
2021/01/01 16:12:50;;;;;;;27.17;16.35;;;3.90;99.90;;;;;;6950842;28;20437;-67
2021/01/01 16:16:11;;;;;;;27.00;16.10;;;3.90;99.90;;;;;;6925176;28;20409;-68
2021/01/01 16:19:32;;;;;;;29.95;16.95;;;4.00;99.90;;;;;;6970175;28;20436;-70
2021/01/01 16:22:52;;;;;;;28.87;17.30;;;4.00;99.90;;;;;;6944742;28;20405;-69
2021/01/01 16:26:13;;;;;;;29.83;16.97;;;4.00;99.90;;;;;;6948629;28;20414;-70
2021/01/01 16:29:34;;;;;;;30.75;18.40;;;3.90;99.90;;;;;;6966653;28;20476;-69
2021/01/01 16:32:55;;;;;;;29.30;16.30;;;4.10;99.90;;;;;;6954451;28;20403;-69
2021/01/01 16:36:27;;;;;;;24.85;16.00;;;4.10;99.90;;;;;;6966227;28;20395;-69
2021/01/01 16:39:49;;;;;;;27.43;16.90;;;4.00;99.90;;;;;;6947564;28;20399;-68
2021/01/01 16:43:09;;;;;;;25.87;16.50;;;3.90;99.90;;;;;;6925091;28;20417;-68
2021/01/01 16:46:30;;;;;;;30.53;18.30;;;4.00;99.90;;;;;;6935135;28;20466;-69
2021/01/01 16:49:51;;;;;;;28.30;18.88;;;3.90;99.90;;;;;;6935084;28;20483;-69
2021/01/01 16:53:12;;;;;;;28.73;17.75;;;3.90;99.90;;;;;;6938207;28;20996;-69
2021/01/01 16:56:41;;;;;;;26.65;16.92;;;4.00;99.90;;;;;;6928668;28;20600;-69
2021/01/01 17:00:03;;;;;;;27.50;17.37;;;4.10;99.90;;;;;;6959196;28;20436;-69
2021/01/01 17:03:24;;;;;;;29.02;17.10;;;4.00;99.90;;;;;;6953020;28;20473;-69
2021/01/01 17:06:45;;;;;;;28.30;17.10;;;3.90;99.90;;;;;;6944444;28;20771;-69
2021/01/01 17:10:06;;;;;;;30.80;18.70;;;3.90;99.90;;;;;;6938633;28;20417;-69
2021/01/01 17:13:32;;;;;;;30.33;18.33;;;4.10;99.90;;;;;;6968927;28;20487;-69
2021/01/01 17:16:57;;;;;;;30.92;18.48;;;4.10;99.90;;;;;;6937625;28;20438;-70
2021/01/01 17:20:18;;;;;;;30.97;18.67;;;4.00;99.90;;;;;;6958428;28;20409;-69
2021/01/01 17:23:38;;;;;;;30.53;18.10;;;4.10;99.90;;;;;;6942949;28;20409;-69
2021/01/01 17:26:59;;;;;;;31.60;19.02;;;4.00;99.90;;;;;;6955751;28;20483;-69
2021/01/01 17:30:20;;;;;;;29.23;18.77;;;4.00;99.90;;;;;;6961525;28;20415;-70
2021/01/01 17:33:42;;;;;;;28.85;18.40;;;4.10;99.90;;;;;;6969274;28;20389;-69
2021/01/01 17:37:04;;;;;;;34.10;19.70;;;3.90;99.90;;;;;;6951391;28;20560;-70
2021/01/01 17:40:26;;;;;;;31.50;18.20;;;3.90;99.90;;;;;;6948669;28;20401;-70
2021/01/01 17:43:48;;;;;;;31.60;19.00;;;4.00;99.90;;;;;;6965828;28;20426;-69
2021/01/01 17:47:08;;;;;;;30.45;18.48;;;4.10;99.90;;;;;;6944048;28;20479;-70
2021/01/01 17:50:32;;;;;;;32.63;18.67;;;4.10;99.90;;;;;;6933126;28;21167;-70
2021/01/01 17:53:53;;;;;;;28.88;18.27;;;3.90;99.90;;;;;;6953695;28;20745;-69
2021/01/01 17:57:15;;;;;;;28.85;19.05;;;4.10;99.90;;;;;;6947783;28;20405;-69
2021/01/01 18:00:36;;;;;;;29.23;18.80;;;4.20;99.90;;;;;;6956599;28;20545;-69
2021/01/01 18:03:57;;;;;;;31.35;19.13;;;3.90;99.90;;;;;;6931578;28;21103;-71
2021/01/01 18:07:18;;;;;;;36.23;22.87;;;4.10;99.90;;;;;;6960943;28;20403;-69
2021/01/01 18:10:39;;;;;;;31.97;18.60;;;4.20;99.90;;;;;;6941951;28;20441;-70
2021/01/01 18:14:00;;;;;;;29.60;18.58;;;4.20;99.90;;;;;;6947404;28;20404;-70
2021/01/01 18:17:21;;;;;;;31.58;18.45;;;4.10;99.90;;;;;;6942302;28;20442;-70
2021/01/01 18:20:43;;;;;;;31.00;18.47;;;4.10;99.90;;;;;;6938943;28;21963;-69
2021/01/01 18:24:08;;;;;;;30.00;18.70;;;4.10;99.90;;;;;;6949083;28;20398;-70